sensor_id;sensor_type;location;lat;lon;timestamp;pressure;altitude;pressure_sealevel;temperature;humidity
47280;BME280;34064;44.942;0.008;2023-03-04T00:00:31;99611.09;;;9.87;48.04
47280;BME280;34064;44.942;0.008;2023-03-04T00:02:59;99612.13;;;9.84;48.27
47280;BME280;34064;44.942;0.008;2023-03-04T00:05:26;99615.66;;;9.85;48.01
47280;BME280;34064;44.942;0.008;2023-03-04T00:07:54;99613.94;;;9.84;48.03
47280;BME280;34064;44.942;0.008;2023-03-04T00:10:21;99614.88;;;9.83;47.87
47280;BME280;34064;44.942;0.008;2023-03-04T00:12:48;99608.63;;;9.84;47.87
47280;BME280;34064;44.942;0.008;2023-03-04T00:15:16;99614.78;;;9.84;47.95
47280;BME280;34064;44.942;0.008;2023-03-04T00:17:43;99613.00;;;9.85;47.95
47280;BME280;34064;44.942;0.008;2023-03-04T00:20:12;99617.44;;;9.84;48.01
47280;BME280;34064;44.942;0.008;2023-03-04T00:22:40;99612.13;;;9.84;48.01
47280;BME280;34064;44.942;0.008;2023-03-04T00:25:07;99613.94;;;9.84;47.91
47280;BME280;34064;44.942;0.008;2023-03-04T00:27:35;99611.28;;;9.84;47.94
47280;BME280;34064;44.942;0.008;2023-03-04T00:30:03;99618.38;;;9.83;48.06
47280;BME280;34064;44.942;0.008;2023-03-04T00:32:31;99612.22;;;9.83;47.82
47280;BME280;34064;44.942;0.008;2023-03-04T00:34:59;99610.53;;;9.82;48.07
47280;BME280;34064;44.942;0.008;2023-03-04T00:37:26;99617.72;;;9.80;48.07
47280;BME280;34064;44.942;0.008;2023-03-04T00:39:54;99610.81;;;9.77;48.15
47280;BME280;34064;44.942;0.008;2023-03-04T00:42:21;99615.28;;;9.77;48.06
47280;BME280;34064;44.942;0.008;2023-03-04T00:44:48;99617.94;;;9.77;48.22
47280;BME280;34064;44.942;0.008;2023-03-04T00:47:17;99611.75;;;9.76;48.15
47280;BME280;34064;44.942;0.008;2023-03-04T00:49:44;99616.22;;;9.76;48.27
47280;BME280;34064;44.942;0.008;2023-03-04T00:52:10;99614.50;;;9.75;48.58
47280;BME280;34064;44.942;0.008;2023-03-04T00:54:36;99612.78;;;9.74;48.47
47280;BME280;34064;44.942;0.008;2023-03-04T00:57:03;99612.78;;;9.74;48.23
47280;BME280;34064;44.942;0.008;2023-03-04T00:59:29;99606.63;;;9.73;48.22
47280;BME280;34064;44.942;0.008;2023-03-04T01:01:55;99604.94;;;9.72;48.29
47280;BME280;34064;44.942;0.008;2023-03-04T01:04:22;99600.47;;;9.73;48.39
47280;BME280;34064;44.942;0.008;2023-03-04T01:06:48;99601.50;;;9.70;48.37
47280;BME280;34064;44.942;0.008;2023-03-04T01:09:15;99604.25;;;9.68;48.48
47280;BME280;34064;44.942;0.008;2023-03-04T01:11:41;99600.84;;;9.66;48.54
47280;BME280;34064;44.942;0.008;2023-03-04T01:14:08;99590.41;;;9.63;48.83
47280;BME280;34064;44.942;0.008;2023-03-04T01:16:34;99601.97;;;9.62;48.69
47280;BME280;34064;44.942;0.008;2023-03-04T01:19:01;99598.53;;;9.60;48.90
47280;BME280;34064;44.942;0.008;2023-03-04T01:21:27;99599.69;;;9.56;48.79
47280;BME280;34064;44.942;0.008;2023-03-04T01:23:54;99596.28;;;9.54;48.99
47280;BME280;34064;44.942;0.008;2023-03-04T01:26:20;99600.13;;;9.48;48.96
47280;BME280;34064;44.942;0.008;2023-03-04T01:28:46;99595.97;;;9.44;49.05
47280;BME280;34064;44.942;0.008;2023-03-04T01:31:14;99598.81;;;9.41;49.25
47280;BME280;34064;44.942;0.008;2023-03-04T01:33:40;99604.47;;;9.35;49.00
47280;BME280;34064;44.942;0.008;2023-03-04T01:36:07;99603.09;;;9.28;48.93
47280;BME280;34064;44.942;0.008;2023-03-04T01:38:34;99601.75;;;9.20;48.99
47280;BME280;34064;44.942;0.008;2023-03-04T01:41:01;99602.97;;;9.15;49.24
47280;BME280;34064;44.942;0.008;2023-03-04T01:43:30;99608.69;;;9.07;49.09
47280;BME280;34064;44.942;0.008;2023-03-04T01:45:58;99603.66;;;9.02;49.15
47280;BME280;34064;44.942;0.008;2023-03-04T01:48:31;99610.09;;;8.98;49.08
47280;BME280;34064;44.942;0.008;2023-03-04T01:51:01;99608.56;;;8.94;49.09
47280;BME280;34064;44.942;0.008;2023-03-04T01:53:29;99591.16;;;8.90;49.16
47280;BME280;34064;44.942;0.008;2023-03-04T01:56:01;99598.31;;;8.88;49.13
47280;BME280;34064;44.942;0.008;2023-03-04T01:58:31;99603.78;;;8.85;49.06
47280;BME280;34064;44.942;0.008;2023-03-04T02:00:58;99600.56;;;8.80;49.20
47280;BME280;34064;44.942;0.008;2023-03-04T02:03:25;99600.91;;;8.73;49.01
47280;BME280;34064;44.942;0.008;2023-03-04T02:05:52;99597.66;;;8.68;49.11
47280;BME280;34064;44.942;0.008;2023-03-04T02:08:21;99605.84;;;8.64;49.16
47280;BME280;34064;44.942;0.008;2023-03-04T02:10:49;99601.75;;;8.58;49.35
47280;BME280;34064;44.942;0.008;2023-03-04T02:13:16;99605.69;;;8.51;49.09
47280;BME280;34064;44.942;0.008;2023-03-04T02:15:44;99602.38;;;8.46;49.27
47280;BME280;34064;44.942;0.008;2023-03-04T02:18:22;99606.06;;;8.43;49.16
47280;BME280;34064;44.942;0.008;2023-03-04T02:21:04;99608.03;;;8.39;49.24
47280;BME280;34064;44.942;0.008;2023-03-04T02:23:46;99607.44;;;8.34;49.28
47280;BME280;34064;44.942;0.008;2023-03-04T02:26:19;99616.47;;;8.30;49.25
47280;BME280;34064;44.942;0.008;2023-03-04T02:28:49;99610.59;;;8.25;49.21
47280;BME280;34064;44.942;0.008;2023-03-04T02:31:42;99607.31;;;8.20;49.35
47280;BME280;34064;44.942;0.008;2023-03-04T02:36:41;99608.75;;;8.09;49.24
47280;BME280;34064;44.942;0.008;2023-03-04T02:39:28;99615.41;;;8.01;49.33
47280;BME280;34064;44.942;0.008;2023-03-04T02:41:55;99618.34;;;7.94;49.55
47280;BME280;34064;44.942;0.008;2023-03-04T02:44:27;99616.13;;;7.87;49.46
47280;BME280;34064;44.942;0.008;2023-03-04T02:46:54;99621.72;;;7.80;49.60
47280;BME280;34064;44.942;0.008;2023-03-04T02:49:22;99625.53;;;7.75;49.68
47280;BME280;34064;44.942;0.008;2023-03-04T02:52:00;99613.50;;;7.69;49.80
47280;BME280;34064;44.942;0.008;2023-03-04T02:54:27;99612.88;;;7.64;49.65
47280;BME280;34064;44.942;0.008;2023-03-04T02:56:58;99616.63;;;7.60;49.64
47280;BME280;34064;44.942;0.008;2023-03-04T02:59:25;99611.50;;;7.57;49.66
47280;BME280;34064;44.942;0.008;2023-03-04T03:01:51;99613.50;;;7.52;49.61
47280;BME280;34064;44.942;0.008;2023-03-04T03:04:18;99616.38;;;7.47;49.52
47280;BME280;34064;44.942;0.008;2023-03-04T03:06:45;99620.97;;;7.43;49.50
47280;BME280;34064;44.942;0.008;2023-03-04T03:09:12;99608.84;;;7.39;49.64
47280;BME280;34064;44.942;0.008;2023-03-04T03:11:38;99619.56;;;7.36;50.13
47280;BME280;34064;44.942;0.008;2023-03-04T03:14:05;99616.38;;;7.29;49.83
47280;BME280;34064;44.942;0.008;2023-03-04T03:16:31;99610.47;;;7.24;50.14
47280;BME280;34064;44.942;0.008;2023-03-04T03:18:57;99610.75;;;7.18;50.00
47280;BME280;34064;44.942;0.008;2023-03-04T03:21:24;99614.75;;;7.09;50.10
47280;BME280;34064;44.942;0.008;2023-03-04T03:23:51;99616.91;;;7.01;50.23
47280;BME280;34064;44.942;0.008;2023-03-04T03:26:22;99625.91;;;6.97;50.15
47280;BME280;34064;44.942;0.008;2023-03-04T03:28:49;99625.28;;;6.92;50.31
47280;BME280;34064;44.942;0.008;2023-03-04T03:31:16;99628.13;;;6.87;50.31
47280;BME280;34064;44.942;0.008;2023-03-04T03:33:44;99630.22;;;6.80;50.63
47280;BME280;34064;44.942;0.008;2023-03-04T03:36:12;99635.81;;;6.74;50.54
47280;BME280;34064;44.942;0.008;2023-03-04T03:38:39;99637.94;;;6.66;50.54
47280;BME280;34064;44.942;0.008;2023-03-04T03:41:06;99643.50;;;6.60;50.42
47280;BME280;34064;44.942;0.008;2023-03-04T03:43:32;99638.34;;;6.56;50.48
47280;BME280;34064;44.942;0.008;2023-03-04T03:45:59;99645.50;;;6.54;50.77
47280;BME280;34064;44.942;0.008;2023-03-04T03:48:25;99643.09;;;6.50;50.48
47280;BME280;34064;44.942;0.008;2023-03-04T03:50:52;99649.34;;;6.47;50.55
47280;BME280;34064;44.942;0.008;2023-03-04T03:53:19;99638.94;;;6.44;50.79
47280;BME280;34064;44.942;0.008;2023-03-04T03:55:46;99640.00;;;6.40;50.72
47280;BME280;34064;44.942;0.008;2023-03-04T03:58:13;99641.09;;;6.36;50.68
47280;BME280;34064;44.942;0.008;2023-03-04T04:00:39;99639.50;;;6.32;50.66
47280;BME280;34064;44.942;0.008;2023-03-04T04:03:05;99648.41;;;6.29;51.03
47280;BME280;34064;44.942;0.008;2023-03-04T04:05:32;99646.91;;;6.23;50.76
47280;BME280;34064;44.942;0.008;2023-03-04T04:07:58;99648.84;;;6.20;50.85
47280;BME280;34064;44.942;0.008;2023-03-04T04:10:24;99657.88;;;6.14;50.95
47280;BME280;34064;44.942;0.008;2023-03-04T04:12:51;99656.56;;;6.04;51.05
47280;BME280;34064;44.942;0.008;2023-03-04T04:15:18;99660.28;;;6.00;51.09
47280;BME280;34064;44.942;0.008;2023-03-04T04:17:44;99665.78;;;5.93;51.01
47280;BME280;34064;44.942;0.008;2023-03-04T04:20:11;99671.34;;;5.87;51.16
47280;BME280;34064;44.942;0.008;2023-03-04T04:22:37;99669.88;;;5.80;51.22
47280;BME280;34064;44.942;0.008;2023-03-04T04:25:04;99674.59;;;5.72;51.19
47280;BME280;34064;44.942;0.008;2023-03-04T04:27:31;99673.31;;;5.61;51.35
47280;BME280;34064;44.942;0.008;2023-03-04T04:29:57;99681.44;;;5.55;51.28
47280;BME280;34064;44.942;0.008;2023-03-04T04:32:23;99671.19;;;5.49;51.44
47280;BME280;34064;44.942;0.008;2023-03-04T04:34:50;99674.00;;;5.44;51.33
47280;BME280;34064;44.942;0.008;2023-03-04T04:37:16;99670.66;;;5.41;51.32
47280;BME280;34064;44.942;0.008;2023-03-04T04:39:42;99668.13;;;5.38;51.26
47280;BME280;34064;44.942;0.008;2023-03-04T04:42:10;99676.94;;;5.37;51.30
47280;BME280;34064;44.942;0.008;2023-03-04T04:44:36;99678.66;;;5.38;51.09
47280;BME280;34064;44.942;0.008;2023-03-04T04:47:04;99679.66;;;5.35;51.56
47280;BME280;34064;44.942;0.008;2023-03-04T04:49:32;99677.09;;;5.34;51.40
47280;BME280;34064;44.942;0.008;2023-03-04T04:51:58;99674.50;;;5.32;51.70
47280;BME280;34064;44.942;0.008;2023-03-04T04:54:24;99682.47;;;5.30;51.51
47280;BME280;34064;44.942;0.008;2023-03-04T04:56:51;99679.03;;;5.28;51.37
47280;BME280;34064;44.942;0.008;2023-03-04T04:59:17;99684.44;;;5.25;51.39
47280;BME280;34064;44.942;0.008;2023-03-04T05:01:43;99685.34;;;5.24;51.64
47280;BME280;34064;44.942;0.008;2023-03-04T05:04:10;99676.59;;;5.24;51.62
47280;BME280;34064;44.942;0.008;2023-03-04T05:06:36;99689.69;;;5.25;51.51
47280;BME280;34064;44.942;0.008;2023-03-04T05:09:03;99689.03;;;5.20;51.93
47280;BME280;34064;44.942;0.008;2023-03-04T05:11:30;99691.69;;;5.20;51.91
47280;BME280;34064;44.942;0.008;2023-03-04T05:13:56;99692.69;;;5.16;51.77
47280;BME280;34064;44.942;0.008;2023-03-04T05:16:22;99695.59;;;5.10;51.77
47280;BME280;34064;44.942;0.008;2023-03-04T05:18:48;99699.31;;;5.04;51.76
47280;BME280;34064;44.942;0.008;2023-03-04T05:21:15;99701.34;;;4.97;51.85
47280;BME280;34064;44.942;0.008;2023-03-04T05:23:42;99698.16;;;4.89;51.84
47280;BME280;34064;44.942;0.008;2023-03-04T05:26:14;99707.94;;;4.86;51.85
47280;BME280;34064;44.942;0.008;2023-03-04T05:28:41;99707.09;;;4.85;51.89
47280;BME280;34064;44.942;0.008;2023-03-04T05:31:08;99703.66;;;4.83;52.07
47280;BME280;34064;44.942;0.008;2023-03-04T05:33:35;99709.09;;;4.78;52.09
47280;BME280;34064;44.942;0.008;2023-03-04T05:36:05;99711.75;;;4.78;51.84
47280;BME280;34064;44.942;0.008;2023-03-04T05:38:33;99708.22;;;4.78;52.06
47280;BME280;34064;44.942;0.008;2023-03-04T05:41:02;99706.47;;;4.78;52.34
47280;BME280;34064;44.942;0.008;2023-03-04T05:43:29;99703.91;;;4.77;52.25
47280;BME280;34064;44.942;0.008;2023-03-04T05:45:57;99702.28;;;4.73;52.45
47280;BME280;34064;44.942;0.008;2023-03-04T05:48:24;99710.31;;;4.69;51.98
47280;BME280;34064;44.942;0.008;2023-03-04T05:50:57;99712.19;;;4.66;52.44
47280;BME280;34064;44.942;0.008;2023-03-04T05:53:25;99723.69;;;4.63;52.18
47280;BME280;34064;44.942;0.008;2023-03-04T05:55:53;99710.59;;;4.62;52.28
47280;BME280;34064;44.942;0.008;2023-03-04T05:58:21;99710.66;;;4.60;52.47
47280;BME280;34064;44.942;0.008;2023-03-04T06:00:49;99715.09;;;4.58;52.46
47280;BME280;34064;44.942;0.008;2023-03-04T06:03:18;99722.16;;;4.58;52.19
47280;BME280;34064;44.942;0.008;2023-03-04T06:05:46;99721.25;;;4.59;52.08
47280;BME280;34064;44.942;0.008;2023-03-04T06:08:14;99721.97;;;4.62;52.10
47280;BME280;34064;44.942;0.008;2023-03-04T06:10:41;99716.63;;;4.65;51.91
47280;BME280;34064;44.942;0.008;2023-03-04T06:13:09;99722.78;;;4.64;52.54
47280;BME280;34064;44.942;0.008;2023-03-04T06:15:38;99725.50;;;4.63;52.31
47280;BME280;34064;44.942;0.008;2023-03-04T06:18:07;99724.69;;;4.61;52.76
47280;BME280;34064;44.942;0.008;2023-03-04T06:20:35;99726.50;;;4.59;52.23
47280;BME280;34064;44.942;0.008;2023-03-04T06:23:03;99729.38;;;4.52;52.55
47280;BME280;34064;44.942;0.008;2023-03-04T06:25:31;99725.88;;;4.52;52.63
47280;BME280;34064;44.942;0.008;2023-03-04T06:27:58;99728.66;;;4.47;52.54
47280;BME280;34064;44.942;0.008;2023-03-04T06:30:25;99729.81;;;4.40;52.65
47280;BME280;34064;44.942;0.008;2023-03-04T06:32:53;99738.69;;;4.37;52.37
47280;BME280;34064;44.942;0.008;2023-03-04T06:35:20;99737.97;;;4.32;52.63
47280;BME280;34064;44.942;0.008;2023-03-04T06:37:48;99743.41;;;4.28;52.44
47280;BME280;34064;44.942;0.008;2023-03-04T06:40:16;99745.28;;;4.24;52.46
47280;BME280;34064;44.942;0.008;2023-03-04T06:42:43;99756.84;;;4.20;52.66
47280;BME280;34064;44.942;0.008;2023-03-04T06:45:11;99755.22;;;4.16;52.39
47280;BME280;34064;44.942;0.008;2023-03-04T06:47:39;99755.22;;;4.16;52.48
47280;BME280;34064;44.942;0.008;2023-03-04T06:50:07;99764.03;;;4.15;52.48
47280;BME280;34064;44.942;0.008;2023-03-04T06:52:34;99765.66;;;4.19;52.82
47280;BME280;34064;44.942;0.008;2023-03-04T06:55:01;99758.53;;;4.21;52.71
47280;BME280;34064;44.942;0.008;2023-03-04T06:57:27;99763.78;;;4.21;53.19
47280;BME280;34064;44.942;0.008;2023-03-04T06:59:54;99764.66;;;4.21;52.85
47280;BME280;34064;44.942;0.008;2023-03-04T07:02:20;99757.69;;;4.20;52.74
47280;BME280;34064;44.942;0.008;2023-03-04T07:04:46;99761.13;;;4.22;52.56
47280;BME280;34064;44.942;0.008;2023-03-04T07:07:13;99757.53;;;4.25;52.90
47280;BME280;34064;44.942;0.008;2023-03-04T07:09:39;99757.44;;;4.28;52.73
47280;BME280;34064;44.942;0.008;2023-03-04T07:12:06;99755.56;;;4.30;53.08
47280;BME280;34064;44.942;0.008;2023-03-04T07:14:32;99755.41;;;4.35;52.86
47280;BME280;34064;44.942;0.008;2023-03-04T07:16:59;99750.94;;;4.39;52.94
47280;BME280;34064;44.942;0.008;2023-03-04T07:19:25;99757.78;;;4.43;53.41
47280;BME280;34064;44.942;0.008;2023-03-04T07:21:51;99754.13;;;4.47;53.33
47280;BME280;34064;44.942;0.008;2023-03-04T07:24:18;99754.06;;;4.48;53.45
47280;BME280;34064;44.942;0.008;2023-03-04T07:26:44;99751.38;;;4.50;53.23
47280;BME280;34064;44.942;0.008;2023-03-04T07:29:11;99755.72;;;4.51;53.65
47280;BME280;34064;44.942;0.008;2023-03-04T07:31:38;99753.09;;;4.51;53.47
47280;BME280;34064;44.942;0.008;2023-03-04T07:34:07;99762.06;;;4.45;53.95
47280;BME280;34064;44.942;0.008;2023-03-04T07:36:36;99767.28;;;4.47;53.78
47280;BME280;34064;44.942;0.008;2023-03-04T07:39:03;99754.97;;;4.47;53.83
47280;BME280;34064;44.942;0.008;2023-03-04T07:41:30;99757.63;;;4.47;53.65
47280;BME280;34064;44.942;0.008;2023-03-04T07:43:58;99757.69;;;4.46;53.52
47280;BME280;34064;44.942;0.008;2023-03-04T07:46:24;99755.06;;;4.46;53.56
47280;BME280;34064;44.942;0.008;2023-03-04T07:48:51;99758.34;;;4.51;53.67
47280;BME280;34064;44.942;0.008;2023-03-04T07:51:20;99752.81;;;4.59;53.03
47280;BME280;34064;44.942;0.008;2023-03-04T07:53:49;99761.41;;;4.64;53.99
47280;BME280;34064;44.942;0.008;2023-03-04T07:56:18;99755.00;;;4.71;53.70
47280;BME280;34064;44.942;0.008;2023-03-04T07:58:45;99754.69;;;4.79;53.96
47280;BME280;34064;44.942;0.008;2023-03-04T08:01:14;99751.72;;;4.88;54.34
47280;BME280;34064;44.942;0.008;2023-03-04T08:03:41;99753.22;;;4.95;53.66
47280;BME280;34064;44.942;0.008;2023-03-04T08:06:10;99746.81;;;5.03;53.97
47280;BME280;34064;44.942;0.008;2023-03-04T08:08:38;99753.53;;;5.10;54.25
47280;BME280;34064;44.942;0.008;2023-03-04T08:11:06;99747.91;;;5.19;54.13
47280;BME280;34064;44.942;0.008;2023-03-04T08:13:33;99745.00;;;5.27;53.88
47280;BME280;34064;44.942;0.008;2023-03-04T08:16:00;99751.53;;;5.39;53.51
47280;BME280;34064;44.942;0.008;2023-03-04T08:18:27;99750.31;;;5.47;53.61
47280;BME280;34064;44.942;0.008;2023-03-04T08:20:53;99744.69;;;5.57;53.73
47280;BME280;34064;44.942;0.008;2023-03-04T08:23:20;99743.50;;;5.64;53.92
47280;BME280;34064;44.942;0.008;2023-03-04T08:25:47;99748.38;;;5.73;53.88
47280;BME280;34064;44.942;0.008;2023-03-04T08:28:14;99746.22;;;5.83;54.02
47280;BME280;34064;44.942;0.008;2023-03-04T08:30:41;99746.63;;;5.94;53.83
47280;BME280;34064;44.942;0.008;2023-03-04T08:33:08;99741.97;;;6.01;53.84
47280;BME280;34064;44.942;0.008;2023-03-04T08:35:37;99740.66;;;6.12;54.13
47280;BME280;34064;44.942;0.008;2023-03-04T08:38:04;99730.72;;;6.18;54.27
47280;BME280;34064;44.942;0.008;2023-03-04T08:40:31;99732.88;;;6.29;54.05
47280;BME280;34064;44.942;0.008;2023-03-04T08:42:57;99735.19;;;6.37;54.33
47280;BME280;34064;44.942;0.008;2023-03-04T08:45:23;99733.81;;;6.47;54.08
47280;BME280;34064;44.942;0.008;2023-03-04T08:47:50;99732.56;;;6.56;54.50
47280;BME280;34064;44.942;0.008;2023-03-04T08:50:17;99726.00;;;6.65;54.34
47280;BME280;34064;44.942;0.008;2023-03-04T08:52:43;99727.31;;;6.75;54.42
47280;BME280;34064;44.942;0.008;2023-03-04T08:55:10;99718.09;;;6.84;54.25
47280;BME280;34064;44.942;0.008;2023-03-04T08:57:36;99717.56;;;6.95;54.06
47280;BME280;34064;44.942;0.008;2023-03-04T09:00:03;99710.16;;;7.03;54.52
47280;BME280;34064;44.942;0.008;2023-03-04T09:02:30;99703.25;;;7.18;54.46
47280;BME280;34064;44.942;0.008;2023-03-04T09:04:56;99700.25;;;7.26;54.79
47280;BME280;34064;44.942;0.008;2023-03-04T09:07:22;99699.81;;;7.35;54.73
47280;BME280;34064;44.942;0.008;2023-03-04T09:09:49;99699.34;;;7.44;54.45
47280;BME280;34064;44.942;0.008;2023-03-04T09:12:15;99702.47;;;7.53;54.56
47280;BME280;34064;44.942;0.008;2023-03-04T09:14:42;99698.44;;;7.63;55.04
47280;BME280;34064;44.942;0.008;2023-03-04T09:17:08;99692.69;;;7.72;54.95
47280;BME280;34064;44.942;0.008;2023-03-04T09:19:35;99690.22;;;7.87;55.77
47280;BME280;34064;44.942;0.008;2023-03-04T09:22:01;99688.00;;;7.95;55.83
47280;BME280;34064;44.942;0.008;2023-03-04T09:24:28;99687.53;;;8.04;55.43
47280;BME280;34064;44.942;0.008;2023-03-04T09:26:54;99679.91;;;8.16;55.72
47280;BME280;34064;44.942;0.008;2023-03-04T09:29:21;99675.97;;;8.23;55.42
47280;BME280;34064;44.942;0.008;2023-03-04T09:31:47;99669.25;;;8.33;55.64
47280;BME280;34064;44.942;0.008;2023-03-04T09:34:14;99668.00;;;8.40;55.62
47280;BME280;34064;44.942;0.008;2023-03-04T09:36:40;99666.91;;;8.45;55.59
47280;BME280;34064;44.942;0.008;2023-03-04T09:39:07;99660.34;;;8.52;55.66
47280;BME280;34064;44.942;0.008;2023-03-04T09:41:40;99657.38;;;8.58;55.59
47280;BME280;34064;44.942;0.008;2023-03-04T09:46:39;99648.50;;;8.75;54.98
47280;BME280;34064;44.942;0.008;2023-03-04T09:49:08;99648.81;;;8.85;54.87
47280;BME280;34064;44.942;0.008;2023-03-04T09:51:56;99644.81;;;8.94;54.80
47280;BME280;34064;44.942;0.008;2023-03-04T10:02:43;99651.38;;;9.18;54.33
47280;BME280;34064;44.942;0.008;2023-03-04T10:05:14;99637.84;;;9.23;54.35
47280;BME280;34064;44.942;0.008;2023-03-04T10:07:44;99640.22;;;9.28;54.29
47280;BME280;34064;44.942;0.008;2023-03-04T10:10:35;99639.03;;;9.33;54.32
47280;BME280;34064;44.942;0.008;2023-03-04T10:13:09;99636.09;;;9.38;54.20
47280;BME280;34064;44.942;0.008;2023-03-04T10:15:48;99634.78;;;9.45;54.03
47280;BME280;34064;44.942;0.008;2023-03-04T10:18:42;99631.03;;;9.49;54.05
47280;BME280;34064;44.942;0.008;2023-03-04T10:21:25;99621.69;;;9.58;53.85
47280;BME280;34064;44.942;0.008;2023-03-04T10:23:55;99616.75;;;9.66;53.71
47280;BME280;34064;44.942;0.008;2023-03-04T10:26:22;99612.78;;;9.74;53.92
47280;BME280;34064;44.942;0.008;2023-03-04T10:28:49;99614.72;;;9.86;53.56
47280;BME280;34064;44.942;0.008;2023-03-04T10:31:36;99600.66;;;9.98;53.49
47280;BME280;34064;44.942;0.008;2023-03-04T10:34:03;99594.78;;;10.08;53.15
47280;BME280;34064;44.942;0.008;2023-03-04T10:39:08;99591.00;;;10.26;52.86
47280;BME280;34064;44.942;0.008;2023-03-04T10:41:36;99579.78;;;10.36;52.96
47280;BME280;34064;44.942;0.008;2023-03-04T10:46:41;99566.69;;;10.61;52.69
47280;BME280;34064;44.942;0.008;2023-03-04T10:49:10;99566.19;;;10.69;52.52
47280;BME280;34064;44.942;0.008;2023-03-04T10:52:12;99552.22;;;10.80;52.25
47280;BME280;34064;44.942;0.008;2023-03-04T10:54:52;99544.34;;;10.91;52.00
47280;BME280;34064;44.942;0.008;2023-03-04T10:59:58;99538.16;;;11.18;50.87
47280;BME280;34064;44.942;0.008;2023-03-04T11:02:27;99537.84;;;11.23;50.79
47280;BME280;34064;44.942;0.008;2023-03-04T11:04:55;99538.19;;;11.31;50.63
47280;BME280;34064;44.942;0.008;2023-03-04T11:07:23;99534.78;;;11.42;50.25
47280;BME280;34064;44.942;0.008;2023-03-04T11:09:50;99538.41;;;11.41;50.51
47280;BME280;34064;44.942;0.008;2023-03-04T11:12:20;99530.75;;;11.49;50.60
47280;BME280;34064;44.942;0.008;2023-03-04T11:14:50;99515.00;;;11.59;50.13
47280;BME280;34064;44.942;0.008;2023-03-04T11:19:50;99504.66;;;11.80;50.27
47280;BME280;34064;44.942;0.008;2023-03-04T11:22:20;99504.13;;;11.88;49.92
47280;BME280;34064;44.942;0.008;2023-03-04T11:25:06;99496.75;;;11.92;49.71
47280;BME280;34064;44.942;0.008;2023-03-04T11:27:46;99500.88;;;11.96;49.68
47280;BME280;34064;44.942;0.008;2023-03-04T11:33:42;99499.94;;;12.10;49.55
47280;BME280;34064;44.942;0.008;2023-03-04T11:38:51;99481.78;;;12.28;48.73
47280;BME280;34064;44.942;0.008;2023-03-04T11:43:51;99470.94;;;12.42;48.92
47280;BME280;34064;44.942;0.008;2023-03-04T12:02:50;99433.84;;;12.99;47.24
47280;BME280;34064;44.942;0.008;2023-03-04T12:05:49;99430.97;;;13.14;46.92
47280;BME280;34064;44.942;0.008;2023-03-04T12:14:01;99405.31;;;13.58;45.30
47280;BME280;34064;44.942;0.008;2023-03-04T12:20:09;99385.78;;;13.69;45.25
47280;BME280;34064;44.942;0.008;2023-03-04T12:31:45;99336.66;;;14.58;44.57
47280;BME280;34064;44.942;0.008;2023-03-04T12:37:53;99321.69;;;14.97;43.97
47280;BME280;34064;44.942;0.008;2023-03-04T12:40:35;99315.03;;;15.13;43.40
47280;BME280;34064;44.942;0.008;2023-03-04T12:48:40;99295.81;;;15.39;42.34
47280;BME280;34064;44.942;0.008;2023-03-04T12:54:10;99292.06;;;15.61;42.66
47280;BME280;34064;44.942;0.008;2023-03-04T12:59:18;99275.59;;;15.75;41.62
47280;BME280;34064;44.942;0.008;2023-03-04T13:04:33;99270.50;;;15.82;39.91
47280;BME280;34064;44.942;0.008;2023-03-04T13:10:00;99263.81;;;15.98;40.75
47280;BME280;34064;44.942;0.008;2023-03-04T13:12:46;99246.59;;;16.10;40.44
47280;BME280;34064;44.942;0.008;2023-03-04T13:15:16;99238.38;;;16.21;40.43
47280;BME280;34064;44.942;0.008;2023-03-04T13:17:47;99228.22;;;16.35;40.14
47280;BME280;34064;44.942;0.008;2023-03-04T13:20:37;99216.34;;;16.47;38.43
47280;BME280;34064;44.942;0.008;2023-03-04T13:23:23;99214.06;;;16.52;39.01
47280;BME280;34064;44.942;0.008;2023-03-04T13:28:31;99217.72;;;16.51;37.29
47280;BME280;34064;44.942;0.008;2023-03-04T13:31:17;99207.25;;;16.58;36.75
47280;BME280;34064;44.942;0.008;2023-03-04T13:33:50;99199.06;;;16.60;37.41
47280;BME280;34064;44.942;0.008;2023-03-04T13:36:53;99198.50;;;16.66;37.68
47280;BME280;34064;44.942;0.008;2023-03-04T13:39:26;99197.19;;;16.70;36.54
47280;BME280;34064;44.942;0.008;2023-03-04T13:41:54;99191.25;;;16.76;37.46
47280;BME280;34064;44.942;0.008;2023-03-04T13:47:19;99182.22;;;17.05;37.00
47280;BME280;34064;44.942;0.008;2023-03-04T13:49:46;99170.16;;;17.19;36.91
47280;BME280;34064;44.942;0.008;2023-03-04T13:52:36;99151.75;;;17.42;36.62
47280;BME280;34064;44.942;0.008;2023-03-04T13:58:12;99134.53;;;17.71;34.92
47280;BME280;34064;44.942;0.008;2023-03-04T14:00:47;99130.66;;;17.66;35.39
47280;BME280;34064;44.942;0.008;2023-03-04T14:03:21;99133.88;;;17.69;35.64
47280;BME280;34064;44.942;0.008;2023-03-04T14:06:07;99151.66;;;17.52;35.68
47280;BME280;34064;44.942;0.008;2023-03-04T14:08:33;99151.66;;;17.34;36.18
47280;BME280;34064;44.942;0.008;2023-03-04T14:11:00;99160.09;;;17.21;35.95
47280;BME280;34064;44.942;0.008;2023-03-04T14:13:26;99151.16;;;17.03;35.77
47280;BME280;34064;44.942;0.008;2023-03-04T14:15:57;99175.53;;;16.81;36.08
47280;BME280;34064;44.942;0.008;2023-03-04T14:18:25;99168.69;;;16.69;36.28
47280;BME280;34064;44.942;0.008;2023-03-04T14:20:51;99167.59;;;16.62;34.58
47280;BME280;34064;44.942;0.008;2023-03-04T14:23:31;99180.22;;;16.42;35.00
47280;BME280;34064;44.942;0.008;2023-03-04T14:26:16;99185.31;;;16.35;35.73
47280;BME280;34064;44.942;0.008;2023-03-04T14:28:48;99176.41;;;16.44;34.68
47280;BME280;34064;44.942;0.008;2023-03-04T14:31:17;99178.09;;;16.45;35.43
47280;BME280;34064;44.942;0.008;2023-03-04T14:33:47;99170.53;;;16.68;35.57
47280;BME280;34064;44.942;0.008;2023-03-04T14:36:19;99151.63;;;16.98;35.38
47280;BME280;34064;44.942;0.008;2023-03-04T14:38:55;99136.56;;;17.33;35.21
47280;BME280;34064;44.942;0.008;2023-03-04T14:41:35;99118.34;;;17.63;34.54
47280;BME280;34064;44.942;0.008;2023-03-04T14:44:08;99115.16;;;17.86;33.68
47280;BME280;34064;44.942;0.008;2023-03-04T14:49:36;99109.31;;;18.08;33.44
47280;BME280;34064;44.942;0.008;2023-03-04T14:52:04;99117.91;;;17.94;33.41
47280;BME280;34064;44.942;0.008;2023-03-04T14:54:41;99123.59;;;17.91;33.21
47280;BME280;34064;44.942;0.008;2023-03-04T14:57:25;99112.38;;;17.96;33.13